Haddenham, United Kingdom
Current Conditions -  °F | °C
As of 3:50 PM on Tuesday 21 Oct 2014 (Local Time) from EGUB Reporting Station
Few Clouds Few Clouds  
Wind Chill: 54°   Ceiling: Unl
Heat Index: 54°   Visibility: 6mi
Dew Point: 37°   Wind: 18mph
Humidity: 54%   Direction: 260°W
Pressure: 29.83"   Gusts: 31mph
Location:  51.77°N, 0.93°W
Report Text: EGUB 211450Z 26016G27KT 9999 FEW035CB 12/03 Q1010 BLU NOSIG
Loading
Personal Weather Stations






























Interactive Weather Map
Tropical Storm Tracking
New forecast layout! Learn more

10-Day Weather Forecast

Advertisements
Track Severe Weather on mobile